sensor_id;sensor_type;location;lat;lon;timestamp;pressure;altitude;pressure_sealevel;temperature;humidity
43436;BME280;36399;51.444;-2.018;2024-02-21T00:01:04;100614.91;;;8.88;100.00
43436;BME280;36399;51.444;-2.018;2024-02-21T00:03:31;100599.06;;;8.83;100.00
43436;BME280;36399;51.444;-2.018;2024-02-21T00:05:59;100587.91;;;8.91;100.00
43436;BME280;36399;51.444;-2.018;2024-02-21T00:08:25;100593.91;;;8.87;100.00
43436;BME280;36399;51.444;-2.018;2024-02-21T00:10:51;100593.94;;;8.88;100.00
43436;BME280;36399;51.444;-2.018;2024-02-21T00:13:17;100585.25;;;8.89;100.00
43436;BME280;36399;51.444;-2.018;2024-02-21T00:15:43;100581.75;;;8.89;100.00
43436;BME280;36399;51.444;-2.018;2024-02-21T00:18:09;100568.69;;;8.90;100.00
43436;BME280;36399;51.444;-2.018;2024-02-21T00:20:36;100558.31;;;8.95;100.00
43436;BME280;36399;51.444;-2.018;2024-02-21T00:23:02;100560.81;;;8.89;100.00
43436;BME280;36399;51.444;-2.018;2024-02-21T00:25:29;100559.72;;;8.80;100.00
43436;BME280;36399;51.444;-2.018;2024-02-21T00:27:55;100539.66;;;8.81;100.00
43436;BME280;36399;51.444;-2.018;2024-02-21T00:30:21;100530.91;;;8.79;100.00
43436;BME280;36399;51.444;-2.018;2024-02-21T00:32:47;100524.81;;;8.80;100.00
43436;BME280;36399;51.444;-2.018;2024-02-21T00:35:14;100519.78;;;8.88;100.00
43436;BME280;36399;51.444;-2.018;2024-02-21T00:37:40;100522.38;;;8.88;100.00
43436;BME280;36399;51.444;-2.018;2024-02-21T00:40:07;100524.19;;;8.90;100.00
43436;BME280;36399;51.444;-2.018;2024-02-21T00:42:33;100515.50;;;8.93;100.00
43436;BME280;36399;51.444;-2.018;2024-02-21T00:44:59;100496.25;;;8.89;100.00
43436;BME280;36399;51.444;-2.018;2024-02-21T00:47:25;100513.69;;;8.89;100.00
43436;BME280;36399;51.444;-2.018;2024-02-21T00:49:51;100500.59;;;8.89;100.00
43436;BME280;36399;51.444;-2.018;2024-02-21T00:52:17;100497.84;;;8.84;100.00
43436;BME280;36399;51.444;-2.018;2024-02-21T00:54:43;100486.50;;;8.83;100.00
43436;BME280;36399;51.444;-2.018;2024-02-21T00:57:10;100463.88;;;8.85;100.00
43436;BME280;36399;51.444;-2.018;2024-02-21T00:59:37;100461.25;;;8.85;100.00
43436;BME280;36399;51.444;-2.018;2024-02-21T01:02:03;100455.22;;;8.88;100.00
43436;BME280;36399;51.444;-2.018;2024-02-21T01:04:29;100456.94;;;8.88;100.00
43436;BME280;36399;51.444;-2.018;2024-02-21T01:06:55;100459.53;;;8.86;100.00
43436;BME280;36399;51.444;-2.018;2024-02-21T01:09:20;100456.94;;;8.88;100.00
43436;BME280;36399;51.444;-2.018;2024-02-21T01:11:46;100455.22;;;8.90;100.00
43436;BME280;36399;51.444;-2.018;2024-02-21T01:14:15;100456.94;;;8.88;100.00
43436;BME280;36399;51.444;-2.018;2024-02-21T01:16:41;100453.41;;;8.85;100.00
43436;BME280;36399;51.444;-2.018;2024-02-21T01:19:08;100443.81;;;8.86;100.00
43436;BME280;36399;51.444;-2.018;2024-02-21T01:21:34;100437.69;;;8.85;100.00
43436;BME280;36399;51.444;-2.018;2024-02-21T01:24:00;100426.34;;;8.85;100.00
43436;BME280;36399;51.444;-2.018;2024-02-21T01:26:26;100420.28;;;8.88;100.00
43436;BME280;36399;51.444;-2.018;2024-02-21T01:28:52;100428.19;;;8.89;100.00
43436;BME280;36399;51.444;-2.018;2024-02-21T01:31:18;100421.13;;;8.85;100.00
43436;BME280;36399;51.444;-2.018;2024-02-21T01:33:44;100412.28;;;8.81;100.00
43436;BME280;36399;51.444;-2.018;2024-02-21T01:36:10;100408.03;;;8.85;100.00
43436;BME280;36399;51.444;-2.018;2024-02-21T01:38:35;100406.09;;;8.76;100.00
43436;BME280;36399;51.444;-2.018;2024-02-21T01:41:02;100389.28;;;8.64;100.00
43436;BME280;36399;51.444;-2.018;2024-02-21T01:43:28;100384.88;;;8.61;100.00
43436;BME280;36399;51.444;-2.018;2024-02-21T01:45:57;100376.97;;;8.58;100.00
43436;BME280;36399;51.444;-2.018;2024-02-21T01:48:24;100362.88;;;8.51;100.00
43436;BME280;36399;51.444;-2.018;2024-02-21T01:50:51;100364.53;;;8.46;100.00
43436;BME280;36399;51.444;-2.018;2024-02-21T01:53:39;100358.34;;;8.43;100.00
43436;BME280;36399;51.444;-2.018;2024-02-21T01:56:08;100351.28;;;8.39;100.00
43436;BME280;36399;51.444;-2.018;2024-02-21T01:58:36;100364.34;;;8.37;100.00
43436;BME280;36399;51.444;-2.018;2024-02-21T02:01:03;100347.72;;;8.34;100.00
43436;BME280;36399;51.444;-2.018;2024-02-21T02:03:29;100333.78;;;8.35;100.00
43436;BME280;36399;51.444;-2.018;2024-02-21T02:05:55;100321.63;;;8.37;100.00
43436;BME280;36399;51.444;-2.018;2024-02-21T02:08:21;100316.38;;;8.37;100.00
43436;BME280;36399;51.444;-2.018;2024-02-21T02:10:51;100300.75;;;8.40;100.00
43436;BME280;36399;51.444;-2.018;2024-02-21T02:13:17;100304.28;;;8.42;100.00
43436;BME280;36399;51.444;-2.018;2024-02-21T02:15:45;100301.59;;;8.39;100.00
43436;BME280;36399;51.444;-2.018;2024-02-21T02:18:12;100304.19;;;8.37;100.00
43436;BME280;36399;51.444;-2.018;2024-02-21T02:20:38;100279.81;;;8.40;100.00
43436;BME280;36399;51.444;-2.018;2024-02-21T02:23:30;100298.13;;;8.40;100.00
43436;BME280;36399;51.444;-2.018;2024-02-21T02:26:00;100283.28;;;8.39;100.00
43436;BME280;36399;51.444;-2.018;2024-02-21T02:28:29;100301.50;;;8.34;100.00
43436;BME280;36399;51.444;-2.018;2024-02-21T02:30:55;100302.41;;;8.35;100.00
43436;BME280;36399;51.444;-2.018;2024-02-21T02:33:21;100289.94;;;8.24;100.00
43436;BME280;36399;51.444;-2.018;2024-02-21T02:35:47;100282.00;;;8.20;100.00
43436;BME280;36399;51.444;-2.018;2024-02-21T02:38:12;100286.28;;;8.16;100.00
43436;BME280;36399;51.444;-2.018;2024-02-21T02:40:39;100286.22;;;8.13;100.00
43436;BME280;36399;51.444;-2.018;2024-02-21T02:43:06;100276.59;;;8.11;100.00
43436;BME280;36399;51.444;-2.018;2024-02-21T02:45:32;100257.31;;;8.06;100.00
43436;BME280;36399;51.444;-2.018;2024-02-21T02:47:59;100251.16;;;8.02;100.00
43436;BME280;36399;51.444;-2.018;2024-02-21T02:50:26;100233.75;;;8.04;100.00
43436;BME280;36399;51.444;-2.018;2024-02-21T02:52:53;100233.75;;;8.04;100.00
43436;BME280;36399;51.444;-2.018;2024-02-21T02:55:19;100228.47;;;8.01;100.00
43436;BME280;36399;51.444;-2.018;2024-02-21T02:57:45;100226.72;;;8.00;100.00
43436;BME280;36399;51.444;-2.018;2024-02-21T03:00:13;100209.25;;;7.98;100.00
43436;BME280;36399;51.444;-2.018;2024-02-21T03:02:41;100193.53;;;7.96;100.00
43436;BME280;36399;51.444;-2.018;2024-02-21T03:05:21;100193.53;;;7.96;100.00
43436;BME280;36399;51.444;-2.018;2024-02-21T03:07:47;100183.06;;;7.96;100.00
43436;BME280;36399;51.444;-2.018;2024-02-21T03:10:14;100167.34;;;7.93;100.00
43436;BME280;36399;51.444;-2.018;2024-02-21T03:12:43;100154.28;;;7.93;100.00
43436;BME280;36399;51.444;-2.018;2024-02-21T03:15:09;100137.69;;;7.91;100.00
43436;BME280;36399;51.444;-2.018;2024-02-21T03:17:35;100137.69;;;7.91;100.00
43436;BME280;36399;51.444;-2.018;2024-02-21T03:20:03;100128.13;;;7.93;100.00
43436;BME280;36399;51.444;-2.018;2024-02-21T03:22:35;100105.50;;;7.95;100.00
43436;BME280;36399;51.444;-2.018;2024-02-21T03:25:01;100095.88;;;7.91;100.00
43436;BME280;36399;51.444;-2.018;2024-02-21T03:27:27;100086.38;;;7.96;100.00
43436;BME280;36399;51.444;-2.018;2024-02-21T03:29:53;100074.94;;;7.91;100.00
43436;BME280;36399;51.444;-2.018;2024-02-21T03:32:19;100063.63;;;7.90;100.00
43436;BME280;36399;51.444;-2.018;2024-02-21T03:34:45;100061.88;;;7.89;100.00
43436;BME280;36399;51.444;-2.018;2024-02-21T03:37:11;100037.53;;;7.94;100.00
43436;BME280;36399;51.444;-2.018;2024-02-21T03:39:37;100043.44;;;7.82;100.00
43436;BME280;36399;51.444;-2.018;2024-02-21T03:42:03;100025.16;;;7.82;100.00
43436;BME280;36399;51.444;-2.018;2024-02-21T03:44:31;99997.28;;;7.82;100.00
43436;BME280;36399;51.444;-2.018;2024-02-21T03:46:58;100003.38;;;7.83;100.00
43436;BME280;36399;51.444;-2.018;2024-02-21T03:49:24;99992.06;;;7.82;100.00
43436;BME280;36399;51.444;-2.018;2024-02-21T03:51:50;99979.91;;;7.86;100.00
43436;BME280;36399;51.444;-2.018;2024-02-21T03:54:16;99979.00;;;7.84;100.00
43436;BME280;36399;51.444;-2.018;2024-02-21T03:56:43;99959.88;;;7.85;100.00
43436;BME280;36399;51.444;-2.018;2024-02-21T03:59:09;99945.03;;;7.84;100.00
43436;BME280;36399;51.444;-2.018;2024-02-21T04:01:35;99940.69;;;7.83;100.00
43436;BME280;36399;51.444;-2.018;2024-02-21T04:04:01;99931.94;;;7.81;100.00
43436;BME280;36399;51.444;-2.018;2024-02-21T04:06:28;99912.84;;;7.85;100.00
43436;BME280;36399;51.444;-2.018;2024-02-21T04:08:56;99900.56;;;7.81;100.00
43436;BME280;36399;51.444;-2.018;2024-02-21T04:11:22;99902.34;;;7.82;100.00
43436;BME280;36399;51.444;-2.018;2024-02-21T04:13:48;99892.78;;;7.84;100.00
43436;BME280;36399;51.444;-2.018;2024-02-21T04:16:16;99871.88;;;7.84;100.00
43436;BME280;36399;51.444;-2.018;2024-02-21T04:18:42;99865.78;;;7.85;100.00
43436;BME280;36399;51.444;-2.018;2024-02-21T04:21:10;99862.38;;;7.89;100.00
43436;BME280;36399;51.444;-2.018;2024-02-21T04:23:36;99853.66;;;7.90;100.00
43436;BME280;36399;51.444;-2.018;2024-02-21T04:26:06;99847.63;;;7.94;100.00
43436;BME280;36399;51.444;-2.018;2024-02-21T04:28:32;99831.09;;;7.95;100.00
43436;BME280;36399;51.444;-2.018;2024-02-21T04:30:58;99816.28;;;7.96;100.00
43436;BME280;36399;51.444;-2.018;2024-02-21T04:33:24;99804.97;;;7.98;100.00
43436;BME280;36399;51.444;-2.018;2024-02-21T04:35:51;99787.47;;;7.89;100.00
43436;BME280;36399;51.444;-2.018;2024-02-21T04:38:20;99771.84;;;7.94;100.00
43436;BME280;36399;51.444;-2.018;2024-02-21T04:40:46;99762.25;;;7.95;100.00
43436;BME280;36399;51.444;-2.018;2024-02-21T04:43:12;99752.69;;;7.95;100.00
43436;BME280;36399;51.444;-2.018;2024-02-21T04:45:38;99733.50;;;7.95;100.00
43436;BME280;36399;51.444;-2.018;2024-02-21T04:48:04;99723.03;;;7.93;100.00
43436;BME280;36399;51.444;-2.018;2024-02-21T04:50:30;99716.94;;;7.94;100.00
43436;BME280;36399;51.444;-2.018;2024-02-21T04:52:56;99708.22;;;7.92;100.00
43436;BME280;36399;51.444;-2.018;2024-02-21T04:55:22;99704.75;;;7.93;100.00
43436;BME280;36399;51.444;-2.018;2024-02-21T04:57:48;99691.69;;;7.93;100.00
43436;BME280;36399;51.444;-2.018;2024-02-21T05:00:14;99679.47;;;7.92;100.00
43436;BME280;36399;51.444;-2.018;2024-02-21T05:02:40;99686.44;;;7.93;100.00
43436;BME280;36399;51.444;-2.018;2024-02-21T05:05:06;99679.53;;;7.98;100.00
43436;BME280;36399;51.444;-2.018;2024-02-21T05:07:37;99670.84;;;8.02;100.00
43436;BME280;36399;51.444;-2.018;2024-02-21T05:10:03;99660.38;;;7.99;100.00
43436;BME280;36399;51.444;-2.018;2024-02-21T05:12:29;99655.13;;;7.96;100.00
43436;BME280;36399;51.444;-2.018;2024-02-21T05:14:55;99642.06;;;7.98;100.00
43436;BME280;36399;51.444;-2.018;2024-02-21T05:17:21;99637.69;;;7.95;100.00
43436;BME280;36399;51.444;-2.018;2024-02-21T05:19:47;99631.66;;;8.02;100.00
43436;BME280;36399;51.444;-2.018;2024-02-21T05:22:13;99623.78;;;7.99;100.00
43436;BME280;36399;51.444;-2.018;2024-02-21T05:24:39;99618.59;;;8.02;100.00
43436;BME280;36399;51.444;-2.018;2024-02-21T05:27:06;99590.66;;;7.98;100.00
43436;BME280;36399;51.444;-2.018;2024-02-21T05:29:33;99587.19;;;7.99;100.00
43436;BME280;36399;51.444;-2.018;2024-02-21T05:31:59;99578.47;;;7.97;100.00
43436;BME280;36399;51.444;-2.018;2024-02-21T05:34:25;99565.41;;;7.97;100.00
43436;BME280;36399;51.444;-2.018;2024-02-21T05:36:52;99564.50;;;7.95;100.00
43436;BME280;36399;51.444;-2.018;2024-02-21T05:39:18;99551.50;;;8.03;100.00
43436;BME280;36399;51.444;-2.018;2024-02-21T05:41:44;99539.25;;;7.94;100.00
43436;BME280;36399;51.444;-2.018;2024-02-21T05:44:11;99537.50;;;7.96;100.00
43436;BME280;36399;51.444;-2.018;2024-02-21T05:46:39;99518.34;;;7.96;100.00
43436;BME280;36399;51.444;-2.018;2024-02-21T05:49:05;99488.75;;;7.98;100.00
43436;BME280;36399;51.444;-2.018;2024-02-21T05:51:33;99489.59;;;7.96;100.00
43436;BME280;36399;51.444;-2.018;2024-02-21T05:53:59;99474.81;;;7.99;100.00
43436;BME280;36399;51.444;-2.018;2024-02-21T05:56:25;99460.00;;;7.98;100.00
43436;BME280;36399;51.444;-2.018;2024-02-21T05:58:51;99453.06;;;8.03;100.00
43436;BME280;36399;51.444;-2.018;2024-02-21T06:01:17;99440.00;;;8.06;100.00
43436;BME280;36399;51.444;-2.018;2024-02-21T06:03:47;99427.78;;;7.99;100.00
43436;BME280;36399;51.444;-2.018;2024-02-21T06:06:13;99425.16;;;7.98;100.00
43436;BME280;36399;51.444;-2.018;2024-02-21T06:08:40;99440.84;;;8.01;100.00
43436;BME280;36399;51.444;-2.018;2024-02-21T06:11:06;99439.09;;;7.98;100.00
43436;BME280;36399;51.444;-2.018;2024-02-21T06:13:32;99421.66;;;7.96;100.00
43436;BME280;36399;51.444;-2.018;2024-02-21T06:15:58;99434.72;;;7.94;100.00
43436;BME280;36399;51.444;-2.018;2024-02-21T06:18:24;99415.50;;;7.89;100.00
43436;BME280;36399;51.444;-2.018;2024-02-21T06:20:50;99407.66;;;7.89;100.00
43436;BME280;36399;51.444;-2.018;2024-02-21T06:23:16;99415.50;;;7.89;100.00
43436;BME280;36399;51.444;-2.018;2024-02-21T06:25:42;99420.78;;;7.95;100.00
43436;BME280;36399;51.444;-2.018;2024-02-21T06:28:08;99409.44;;;7.91;100.00
43436;BME280;36399;51.444;-2.018;2024-02-21T06:30:35;99412.91;;;7.89;100.00
43436;BME280;36399;51.444;-2.018;2024-02-21T06:33:01;99409.41;;;7.90;100.00
43436;BME280;36399;51.444;-2.018;2024-02-21T06:35:28;99397.25;;;7.95;100.00
43436;BME280;36399;51.444;-2.018;2024-02-21T06:37:54;99387.66;;;7.93;100.00
43436;BME280;36399;51.444;-2.018;2024-02-21T06:40:22;99373.75;;;8.00;100.00
43436;BME280;36399;51.444;-2.018;2024-02-21T06:42:48;99354.59;;;7.98;100.00
43436;BME280;36399;51.444;-2.018;2024-02-21T06:45:14;99338.94;;;8.04;100.00
43436;BME280;36399;51.444;-2.018;2024-02-21T06:47:41;99336.34;;;8.07;100.00
43436;BME280;36399;51.444;-2.018;2024-02-21T06:50:07;99315.44;;;8.08;100.00
43436;BME280;36399;51.444;-2.018;2024-02-21T06:52:34;99311.97;;;8.12;100.00
43436;BME280;36399;51.444;-2.018;2024-02-21T06:55:00;99298.88;;;8.08;100.00
43436;BME280;36399;51.444;-2.018;2024-02-21T06:57:28;99298.91;;;8.14;100.00
43436;BME280;36399;51.444;-2.018;2024-02-21T06:59:54;99289.31;;;8.14;100.00
43436;BME280;36399;51.444;-2.018;2024-02-21T07:02:20;99271.88;;;8.16;100.00
43436;BME280;36399;51.444;-2.018;2024-02-21T07:04:46;99233.56;;;8.15;100.00
43436;BME280;36399;51.444;-2.018;2024-02-21T07:07:12;99243.13;;;8.15;100.00
43436;BME280;36399;51.444;-2.018;2024-02-21T07:09:38;99264.06;;;8.18;100.00
43436;BME280;36399;51.444;-2.018;2024-02-21T07:12:05;99260.56;;;8.19;100.00
43436;BME280;36399;51.444;-2.018;2024-02-21T07:14:36;99247.50;;;8.17;100.00
43436;BME280;36399;51.444;-2.018;2024-02-21T07:17:02;99250.13;;;8.19;100.00
43436;BME280;36399;51.444;-2.018;2024-02-21T07:19:28;99241.41;;;8.20;100.00
43436;BME280;36399;51.444;-2.018;2024-02-21T07:21:54;99250.13;;;8.22;100.00
43436;BME280;36399;51.444;-2.018;2024-02-21T07:24:19;99238.78;;;8.18;100.00
43436;BME280;36399;51.444;-2.018;2024-02-21T07:26:45;99242.25;;;8.16;100.00
43436;BME280;36399;51.444;-2.018;2024-02-21T07:29:14;99247.50;;;8.20;100.00
43436;BME280;36399;51.444;-2.018;2024-02-21T07:31:44;99232.69;;;8.18;100.00
43436;BME280;36399;51.444;-2.018;2024-02-21T07:34:10;99201.31;;;8.19;100.00
43436;BME280;36399;51.444;-2.018;2024-02-21T07:36:36;99236.19;;;8.23;100.00
43436;BME280;36399;51.444;-2.018;2024-02-21T07:39:05;99218.75;;;8.23;100.00
43436;BME280;36399;51.444;-2.018;2024-02-21T07:41:31;99214.38;;;8.22;100.00
43436;BME280;36399;51.444;-2.018;2024-02-21T07:43:59;99210.91;;;8.23;100.00
43436;BME280;36399;51.444;-2.018;2024-02-21T07:46:25;99197.84;;;8.25;100.00
43436;BME280;36399;51.444;-2.018;2024-02-21T07:48:51;99200.47;;;8.27;100.00
43436;BME280;36399;51.444;-2.018;2024-02-21T07:51:17;99204.81;;;8.28;100.00
43436;BME280;36399;51.444;-2.018;2024-02-21T07:53:44;99196.97;;;8.28;100.00
43436;BME280;36399;51.444;-2.018;2024-02-21T07:56:11;99166.47;;;8.28;100.00
43436;BME280;36399;51.444;-2.018;2024-02-21T07:58:37;99185.63;;;8.27;100.00
43436;BME280;36399;51.444;-2.018;2024-02-21T08:01:03;99179.53;;;8.30;100.00
43436;BME280;36399;51.444;-2.018;2024-02-21T08:03:29;99184.75;;;8.23;100.00
43436;BME280;36399;51.444;-2.018;2024-02-21T08:05:55;99186.50;;;8.31;100.00
43436;BME280;36399;51.444;-2.018;2024-02-21T08:08:21;99168.22;;;8.26;100.00
43436;BME280;36399;51.444;-2.018;2024-02-21T08:10:48;99195.22;;;8.27;100.00
43436;BME280;36399;51.444;-2.018;2024-02-21T08:13:14;99184.75;;;8.23;100.00
43436;BME280;36399;51.444;-2.018;2024-02-21T08:15:41;99184.78;;;8.27;100.00
43436;BME280;36399;51.444;-2.018;2024-02-21T08:18:08;99180.41;;;8.21;100.00
43436;BME280;36399;51.444;-2.018;2024-02-21T08:20:34;99175.19;;;8.19;100.00
43436;BME280;36399;51.444;-2.018;2024-02-21T08:23:00;99183.03;;;8.19;100.00
43436;BME280;36399;51.444;-2.018;2024-02-21T08:25:26;99175.16;;;8.18;100.00
43436;BME280;36399;51.444;-2.018;2024-02-21T08:27:57;99179.53;;;8.17;100.00
43436;BME280;36399;51.444;-2.018;2024-02-21T08:30:23;99167.31;;;8.16;100.00
43436;BME280;36399;51.444;-2.018;2024-02-21T08:32:49;99163.84;;;8.14;100.00
43436;BME280;36399;51.444;-2.018;2024-02-21T08:35:15;99174.28;;;8.16;100.00
43436;BME280;36399;51.444;-2.018;2024-02-21T08:37:44;99172.56;;;8.13;100.00
43436;BME280;36399;51.444;-2.018;2024-02-21T08:40:12;99156.88;;;8.13;100.00
43436;BME280;36399;51.444;-2.018;2024-02-21T08:42:39;99186.50;;;8.14;100.00
43436;BME280;36399;51.444;-2.018;2024-02-21T08:45:06;99185.63;;;8.16;100.00
43436;BME280;36399;51.444;-2.018;2024-02-21T08:47:32;99176.91;;;8.14;100.00
43436;BME280;36399;51.444;-2.018;2024-02-21T08:49:58;99172.56;;;8.16;100.00
43436;BME280;36399;51.444;-2.018;2024-02-21T08:52:24;99169.06;;;8.17;100.00
43436;BME280;36399;51.444;-2.018;2024-02-21T08:54:50;99160.38;;;8.21;100.00
43436;BME280;36399;51.444;-2.018;2024-02-21T08:57:20;99152.53;;;8.18;100.00
43436;BME280;36399;51.444;-2.018;2024-02-21T08:59:46;99153.41;;;8.23;100.00
43436;BME280;36399;51.444;-2.018;2024-02-21T09:02:13;99150.78;;;8.22;100.00
43436;BME280;36399;51.444;-2.018;2024-02-21T09:04:39;99141.19;;;8.30;100.00
43436;BME280;36399;51.444;-2.018;2024-02-21T09:07:05;99144.69;;;8.28;100.00
43436;BME280;36399;51.444;-2.018;2024-02-21T09:09:31;99124.63;;;8.28;100.00
43436;BME280;36399;51.444;-2.018;2024-02-21T09:11:59;99123.75;;;8.29;100.00
43436;BME280;36399;51.444;-2.018;2024-02-21T09:14:32;99115.91;;;8.29;100.00
43436;BME280;36399;51.444;-2.018;2024-02-21T09:16:58;99112.44;;;8.29;100.00
43436;BME280;36399;51.444;-2.018;2024-02-21T09:19:24;99081.06;;;8.32;100.00
43436;BME280;36399;51.444;-2.018;2024-02-21T09:21:50;99091.59;;;8.33;100.00
43436;BME280;36399;51.444;-2.018;2024-02-21T09:24:16;99087.22;;;8.34;100.00
43436;BME280;36399;51.444;-2.018;2024-02-21T09:26:42;99105.53;;;8.35;100.00
43436;BME280;36399;51.444;-2.018;2024-02-21T09:29:07;99093.31;;;8.37;100.00
43436;BME280;36399;51.444;-2.018;2024-02-21T09:31:34;99090.72;;;8.36;100.00
43436;BME280;36399;51.444;-2.018;2024-02-21T09:34:00;99092.44;;;8.43;100.00
43436;BME280;36399;51.444;-2.018;2024-02-21T09:36:26;99061.94;;;8.42;100.00
43436;BME280;36399;51.444;-2.018;2024-02-21T09:38:52;99073.25;;;8.47;100.00
43436;BME280;36399;51.444;-2.018;2024-02-21T09:41:26;99050.59;;;8.43;100.00
43436;BME280;36399;51.444;-2.018;2024-02-21T09:43:53;99054.97;;;8.45;100.00
43436;BME280;36399;51.444;-2.018;2024-02-21T09:46:24;99048.84;;;8.48;100.00
43436;BME280;36399;51.444;-2.018;2024-02-21T09:51:23;99035.78;;;8.49;100.00
43436;BME280;36399;51.444;-2.018;2024-02-21T09:53:51;99044.47;;;8.58;100.00
43436;BME280;36399;51.444;-2.018;2024-02-21T09:56:18;99027.91;;;8.60;100.00
43436;BME280;36399;51.444;-2.018;2024-02-21T09:58:46;99029.66;;;8.60;100.00
43436;BME280;36399;51.444;-2.018;2024-02-21T10:01:12;99013.06;;;8.61;100.00
43436;BME280;36399;51.444;-2.018;2024-02-21T10:03:41;99023.53;;;8.62;100.00
43436;BME280;36399;51.444;-2.018;2024-02-21T10:06:09;99024.41;;;8.64;100.00
43436;BME280;36399;51.444;-2.018;2024-02-21T10:08:35;99010.44;;;8.65;100.00
43436;BME280;36399;51.444;-2.018;2024-02-21T10:11:01;99004.31;;;8.72;100.00
43436;BME280;36399;51.444;-2.018;2024-02-21T10:13:29;98987.75;;;8.70;100.00
43436;BME280;36399;51.444;-2.018;2024-02-21T10:16:06;98986.88;;;8.74;100.00
43436;BME280;36399;51.444;-2.018;2024-02-21T10:18:33;98978.13;;;8.75;100.00
43436;BME280;36399;51.444;-2.018;2024-02-21T10:21:03;98979.91;;;8.73;100.00
43436;BME280;36399;51.444;-2.018;2024-02-21T10:23:47;98966.78;;;8.79;100.00
43436;BME280;36399;51.444;-2.018;2024-02-21T10:26:18;98966.78;;;8.79;100.00
43436;BME280;36399;51.444;-2.018;2024-02-21T10:28:44;98957.19;;;8.78;100.00
43436;BME280;36399;51.444;-2.018;2024-02-21T10:36:22;98936.25;;;8.80;100.00
43436;BME280;36399;51.444;-2.018;2024-02-21T10:38:48;98930.13;;;8.82;100.00
43436;BME280;36399;51.444;-2.018;2024-02-21T10:41:15;98937.16;;;8.77;100.00
43436;BME280;36399;51.444;-2.018;2024-02-21T10:43:46;98926.66;;;8.79;100.00
43436;BME280;36399;51.444;-2.018;2024-02-21T10:46:18;98910.09;;;8.81;100.00
43436;BME280;36399;51.444;-2.018;2024-02-21T10:48:45;98936.25;;;8.81;100.00
43436;BME280;36399;51.444;-2.018;2024-02-21T10:51:15;98907.47;;;8.81;100.00
43436;BME280;36399;51.444;-2.018;2024-02-21T10:53:51;98912.72;;;8.84;100.00
43436;BME280;36399;51.444;-2.018;2024-02-21T10:58:53;98903.97;;;8.87;100.00
43436;BME280;36399;51.444;-2.018;2024-02-21T11:01:20;98887.41;;;8.88;100.00
43436;BME280;36399;51.444;-2.018;2024-02-21T11:03:49;98886.50;;;8.91;100.00
43436;BME280;36399;51.444;-2.018;2024-02-21T11:06:17;98847.28;;;8.88;100.00
43436;BME280;36399;51.444;-2.018;2024-02-21T11:08:43;98852.47;;;8.92;100.00
43436;BME280;36399;51.444;-2.018;2024-02-21T11:11:15;98839.44;;;8.88;100.00
43436;BME280;36399;51.444;-2.018;2024-02-21T11:13:46;98856.81;;;8.96;100.00
43436;BME280;36399;51.444;-2.018;2024-02-21T11:16:21;98852.44;;;8.98;100.00
43436;BME280;36399;51.444;-2.018;2024-02-21T11:18:48;98839.34;;;9.00;100.00
43436;BME280;36399;51.444;-2.018;2024-02-21T11:21:14;98841.03;;;9.07;100.00
43436;BME280;36399;51.444;-2.018;2024-02-21T11:23:40;98827.06;;;9.08;100.00
43436;BME280;36399;51.444;-2.018;2024-02-21T11:26:07;98821.81;;;9.11;100.00
43436;BME280;36399;51.444;-2.018;2024-02-21T11:28:33;98820.94;;;9.09;100.00
43436;BME280;36399;51.444;-2.018;2024-02-21T11:31:10;98810.44;;;9.12;100.00
43436;BME280;36399;51.444;-2.018;2024-02-21T11:33:42;98816.53;;;9.17;100.00
43436;BME280;36399;51.444;-2.018;2024-02-21T11:36:09;98810.41;;;9.18;100.00
43436;BME280;36399;51.444;-2.018;2024-02-21T11:38:35;98798.19;;;9.17;100.00
43436;BME280;36399;51.444;-2.018;2024-02-21T11:41:08;98796.38;;;9.24;100.00
43436;BME280;36399;51.444;-2.018;2024-02-21T11:43:35;98782.44;;;9.23;100.00
43436;BME280;36399;51.444;-2.018;2024-02-21T11:46:01;98787.59;;;9.31;100.00
43436;BME280;36399;51.444;-2.018;2024-02-21T11:48:30;98793.66;;;9.34;100.00
43436;BME280;36399;51.444;-2.018;2024-02-21T11:50:57;98774.47;;;9.35;100.00
43436;BME280;36399;51.444;-2.018;2024-02-21T11:53:23;98772.72;;;9.34;100.00
43436;BME280;36399;51.444;-2.018;2024-02-21T11:55:52;98732.56;;;9.35;100.00
43436;BME280;36399;51.444;-2.018;2024-02-21T11:58:18;98766.59;;;9.35;100.00
43436;BME280;36399;51.444;-2.018;2024-02-21T12:00:44;98772.69;;;9.40;100.00
43436;BME280;36399;51.444;-2.018;2024-02-21T12:03:10;98757.84;;;9.41;100.00
43436;BME280;36399;51.444;-2.018;2024-02-21T12:05:36;98748.28;;;9.38;100.00
43436;BME280;36399;51.444;-2.018;2024-02-21T12:08:02;98762.22;;;9.40;100.00
43436;BME280;36399;51.444;-2.018;2024-02-21T12:10:29;98750.81;;;9.44;100.00
43436;BME280;36399;51.444;-2.018;2024-02-21T12:13:11;98725.50;;;9.45;100.00
43436;BME280;36399;51.444;-2.018;2024-02-21T12:15:40;98739.44;;;9.48;100.00
43436;BME280;36399;51.444;-2.018;2024-02-21T12:18:07;98690.50;;;9.51;100.00
43436;BME280;36399;51.444;-2.018;2024-02-21T12:20:33;98725.47;;;9.46;100.00
43436;BME280;36399;51.444;-2.018;2024-02-21T12:23:02;98709.75;;;9.49;100.00
43436;BME280;36399;51.444;-2.018;2024-02-21T12:25:29;98698.41;;;9.49;100.00
43436;BME280;36399;51.444;-2.018;2024-02-21T12:27:55;98687.00;;;9.52;100.00
43436;BME280;36399;51.444;-2.018;2024-02-21T12:30:22;98670.34;;;9.59;100.00
43436;BME280;36399;51.444;-2.018;2024-02-21T12:32:48;98671.16;;;9.62;100.00
43436;BME280;36399;51.444;-2.018;2024-02-21T12:35:14;98651.91;;;9.65;100.00
43436;BME280;36399;51.444;-2.018;2024-02-21T12:37:41;98637.94;;;9.66;100.00
43436;BME280;36399;51.444;-2.018;2024-02-21T12:40:08;98647.47;;;9.71;100.00
43436;BME280;36399;51.444;-2.018;2024-02-21T12:42:36;98633.41;;;9.77;100.00
43436;BME280;36399;51.444;-2.018;2024-02-21T12:45:02;98640.25;;;9.87;100.00
43436;BME280;36399;51.444;-2.018;2024-02-21T12:47:29;98598.34;;;9.86;100.00
43436;BME280;36399;51.444;-2.018;2024-02-21T12:49:55;98596.59;;;9.86;100.00
43436;BME280;36399;51.444;-2.018;2024-02-21T12:52:21;98587.88;;;9.84;100.00
43436;BME280;36399;51.444;-2.018;2024-02-21T12:54:47;98590.47;;;9.87;100.00
43436;BME280;36399;51.444;-2.018;2024-02-21T12:57:13;98584.34;;;9.88;100.00